KPQI/PQI METAR and TAF weather

Enter ICAO airport designator
Station Type Date Time Source
KPQI METAR 2022/12/04 04:56 UTC NOAA

KPQI 040456Z AUTO 23007KT 10SM SCT032 BKN042 04/01 A2968 RMK AO2 SLP081 T00390011 400941039


Station Type Date Time Source
KPQI Decoded METAR 2022/12/04 04:56 UTC NOAA

Presque Isle, ME, United States (KPQI) 46-41N 068-03W 146M
Dec 03, 2022 - 11:56 PM EST / 2022.12.04 0456 UTC
Wind: from the SW (230 degrees) at 8 MPH (7 KT):0
Visibility: 10 mile(s):0
Sky conditions: mostly cloudy
Temperature: 39.0 F (3.9 C)
Dew Point: 34.0 F (1.1 C)
Relative Humidity: 81%
Pressure (altimeter): 29.68 in. Hg (1005 hPa)
ob: KPQI 040456Z AUTO 23007KT 10SM SCT032 BKN042 04/01 A2968 RMK AO2 SLP081 T00390011 400941039
cycle: 5

Station Type Date Time Source
KPQI TAF 2022/12/04 03:18 UTC NOAA

TAF
AMD KPQI 040315Z 0403/0424 22008G15KT 6SM -RA BR SCT013 OVC035 WS020/21045KT
FM040400 23012G26KT P6SM BKN024
FM040800 26010G23KT P6SM BKN030
FM041600 28011G23KT P6SM BKN035

Example: see airport list